createdAt,value
2022-12-24T00:00:24.115Z,18.04
2022-12-24T00:02:49.917Z,18.05
2022-12-24T00:05:15.527Z,18.03
2022-12-24T00:07:41.081Z,18.04
2022-12-24T00:10:06.978Z,18.04
2022-12-24T00:12:32.529Z,18.03
2022-12-24T00:14:58.097Z,18.04
2022-12-24T00:17:23.648Z,18.03
2022-12-24T00:19:49.212Z,18.04
2022-12-24T00:22:14.765Z,18.04
2022-12-24T00:24:40.330Z,18.04
2022-12-24T00:27:05.943Z,18.04
2022-12-24T00:29:31.841Z,18.03
2022-12-24T00:31:57.570Z,18.04
2022-12-24T00:34:23.427Z,18.04
2022-12-24T00:36:48.969Z,18.03
2022-12-24T00:39:14.560Z,18.05
2022-12-24T00:41:40.109Z,18.04
2022-12-24T00:44:06.353Z,18.05
2022-12-24T00:46:32.997Z,18.04
2022-12-24T00:48:58.735Z,18.03
2022-12-24T00:51:24.380Z,18.04
2022-12-24T00:53:50.153Z,18.04
2022-12-24T00:56:15.719Z,18.04
2022-12-24T00:58:41.290Z,18.04
2022-12-24T01:01:07.037Z,18.03
2022-12-24T01:03:34.652Z,18.05
2022-12-24T01:06:00.749Z,18.04
2022-12-24T01:08:26.387Z,18.04
2022-12-24T01:10:51.936Z,18.04
2022-12-24T01:13:17.523Z,18.04
2022-12-24T01:15:43.095Z,18.04
2022-12-24T01:18:08.689Z,18.05
2022-12-24T01:20:34.256Z,18.05
2022-12-24T01:22:59.807Z,18.05
2022-12-24T01:25:25.369Z,18.05
2022-12-24T01:27:50.919Z,18.05
2022-12-24T01:30:16.471Z,18.04
2022-12-24T01:32:42.027Z,18.05
2022-12-24T01:35:09.160Z,18.04
2022-12-24T01:37:34.732Z,18.04
2022-12-24T01:40:20.184Z,18.04
2022-12-24T01:43:06.969Z,18.04
2022-12-24T01:45:37.198Z,18.04
2022-12-24T01:48:03.151Z,18.05
2022-12-24T01:50:28.695Z,18.05
2022-12-24T01:52:54.251Z,18.04
2022-12-24T01:55:19.802Z,18.04
2022-12-24T01:57:46.075Z,18.04
2022-12-24T02:00:12.516Z,18.05
2022-12-24T02:02:39.683Z,18.05
2022-12-24T02:05:06.745Z,18.04
2022-12-24T02:07:32.315Z,18.04
2022-12-24T02:09:58.372Z,18.04
2022-12-24T02:12:24.471Z,18.04
2022-12-24T02:14:50.031Z,18.04
2022-12-24T02:17:35.458Z,18.04
2022-12-24T02:20:20.897Z,18.05
2022-12-24T02:22:53.430Z,18.05
2022-12-24T02:25:38.860Z,18.05
2022-12-24T02:30:43.069Z,18.05
2022-12-24T02:33:13.957Z,18.05
2022-12-24T02:35:59.398Z,18.05
2022-12-24T02:41:01.581Z,18.04
2022-12-24T02:43:28.710Z,18.05
2022-12-24T02:45:59.249Z,18.05
2022-12-24T02:48:25.280Z,18.04
2022-12-24T02:51:00.548Z,18.05
2022-12-24T02:53:26.150Z,18.05
2022-12-24T02:56:03.289Z,18.06
2022-12-24T02:58:48.821Z,18.06
2022-12-24T03:01:17.133Z,18.05
2022-12-24T03:04:02.948Z,18.05
2022-12-24T03:06:31.940Z,18.05
2022-12-24T03:09:00.043Z,18.05
2022-12-24T03:11:25.616Z,18.05
2022-12-24T03:13:51.171Z,18.04
2022-12-24T03:16:17.235Z,18.05
2022-12-24T03:18:43.858Z,18.04
2022-12-24T03:21:10.497Z,18.04
2022-12-24T03:23:36.176Z,18.06
2022-12-24T03:26:03.927Z,18.06
2022-12-24T03:28:29.525Z,18.05
2022-12-24T03:30:55.082Z,18.05
2022-12-24T03:33:20.750Z,18.05
2022-12-24T03:35:46.315Z,18.07
2022-12-24T03:38:11.863Z,18.05
2022-12-24T03:40:37.406Z,18.05
2022-12-24T03:43:02.964Z,18.05
2022-12-24T03:45:28.707Z,18.07
2022-12-24T03:47:54.294Z,18.05
2022-12-24T03:50:19.854Z,18.05
2022-12-24T03:52:45.431Z,18.05
2022-12-24T03:55:11.016Z,18.05
2022-12-24T03:57:36.612Z,18.05
2022-12-24T04:00:03.972Z,18.05
2022-12-24T04:02:29.632Z,18.05
2022-12-24T04:04:55.352Z,18.06
2022-12-24T04:07:20.918Z,18.05
2022-12-24T04:09:46.463Z,18.06
2022-12-24T04:12:12.034Z,18.06
2022-12-24T04:14:37.578Z,18.04
2022-12-24T04:17:03.193Z,18.05
2022-12-24T04:19:28.762Z,18.05
2022-12-24T04:21:54.360Z,18.06
2022-12-24T04:24:19.910Z,18.06
2022-12-24T04:26:45.485Z,18.07
2022-12-24T04:29:11.044Z,18.07
2022-12-24T04:31:36.813Z,18.06
2022-12-24T04:34:02.515Z,18.07
2022-12-24T04:36:28.087Z,18.06
2022-12-24T04:38:53.634Z,18.06
2022-12-24T04:41:23.852Z,18.05
2022-12-24T04:43:50.408Z,18.07
2022-12-24T04:46:18.044Z,18.06
2022-12-24T04:48:44.089Z,18.07
2022-12-24T04:51:09.644Z,18.07
2022-12-24T04:53:37.960Z,18.06
2022-12-24T04:56:03.724Z,18.06
2022-12-24T04:58:29.297Z,18.07
2022-12-24T05:00:55.003Z,18.06
2022-12-24T05:03:20.942Z,18.07
2022-12-24T05:05:46.868Z,18.07
2022-12-24T05:08:12.685Z,18.06
2022-12-24T05:10:38.235Z,18.07
2022-12-24T05:13:03.817Z,18.07
2022-12-24T05:15:29.379Z,18.07
2022-12-24T05:17:54.943Z,18.08
2022-12-24T05:20:20.546Z,18.06
2022-12-24T05:23:06.034Z,18.07
2022-12-24T05:25:52.525Z,18.06
2022-12-24T05:28:18.108Z,18.07
2022-12-24T05:30:43.709Z,18.07
2022-12-24T05:33:09.303Z,18.07
2022-12-24T05:35:34.858Z,18.07
2022-12-24T05:38:00.412Z,18.07
2022-12-24T05:40:25.962Z,18.06
2022-12-24T05:42:51.510Z,18.07
2022-12-24T05:45:17.065Z,18.07
2022-12-24T05:47:43.567Z,18.07
2022-12-24T05:50:10.312Z,18.07
2022-12-24T05:52:35.885Z,18.06
2022-12-24T05:55:01.489Z,18.07
2022-12-24T05:57:27.068Z,18.07
2022-12-24T05:59:52.614Z,18.06
2022-12-24T06:02:18.269Z,18.07
2022-12-24T06:04:43.924Z,18.07
2022-12-24T06:07:09.522Z,18.07
2022-12-24T06:09:35.086Z,18.07
2022-12-24T06:12:00.679Z,18.09
2022-12-24T06:14:26.235Z,18.08
2022-12-24T06:16:51.798Z,18.08
2022-12-24T06:19:17.359Z,18.07
2022-12-24T06:21:42.918Z,18.07
2022-12-24T06:24:08.480Z,18.08
2022-12-24T06:26:34.033Z,18.08
2022-12-24T06:28:59.594Z,18.07
2022-12-24T06:31:25.186Z,18.07
2022-12-24T06:33:50.919Z,18.08
2022-12-24T06:36:18.256Z,18.08
2022-12-24T06:38:44.500Z,18.07
2022-12-24T06:41:10.119Z,18.08
2022-12-24T06:43:35.680Z,18.08
2022-12-24T06:46:01.468Z,18.08
2022-12-24T06:48:27.035Z,18.07
2022-12-24T06:50:52.619Z,18.08
2022-12-24T06:53:18.182Z,18.08
2022-12-24T06:55:43.746Z,18.08
2022-12-24T06:58:09.298Z,18.09
2022-12-24T07:00:34.879Z,18.08
2022-12-24T07:03:00.572Z,18.07
2022-12-24T07:05:26.211Z,18.08
2022-12-24T07:07:51.808Z,18.08
2022-12-24T07:10:17.746Z,18.08
2022-12-24T07:12:43.430Z,18.08
2022-12-24T07:15:09.466Z,18.07
2022-12-24T07:17:35.071Z,18.08
2022-12-24T07:20:00.743Z,18.08
2022-12-24T07:22:26.312Z,18.08
2022-12-24T07:24:51.865Z,18.09
2022-12-24T07:27:17.446Z,18.08
2022-12-24T07:29:42.991Z,18.07
2022-12-24T07:32:08.600Z,18.08
2022-12-24T07:34:34.206Z,18.07
2022-12-24T07:36:59.778Z,18.07
2022-12-24T07:39:25.330Z,18.08
2022-12-24T07:41:50.899Z,18.08
2022-12-24T07:44:16.449Z,18.09
2022-12-24T07:46:42.235Z,18.09
2022-12-24T07:49:07.822Z,18.09
2022-12-24T07:55:48.055Z,18.08
2022-12-24T07:58:13.617Z,18.08
2022-12-24T08:00:39.169Z,18.09
2022-12-24T08:03:04.838Z,18.08
2022-12-24T08:05:34.283Z,18.08
2022-12-24T08:07:59.839Z,18.08
2022-12-24T08:10:25.386Z,18.08
2022-12-24T08:12:50.949Z,18.08
2022-12-24T08:15:16.522Z,18.09
2022-12-24T08:17:42.155Z,18.09
2022-12-24T08:20:07.861Z,18.08
2022-12-24T08:22:33.423Z,18.09
2022-12-24T08:24:59.006Z,18.08
2022-12-24T08:27:24.575Z,18.09
2022-12-24T08:29:50.124Z,18.09
2022-12-24T08:32:15.684Z,18.09
2022-12-24T08:34:41.235Z,18.09
2022-12-24T08:37:06.792Z,18.08
2022-12-24T08:39:32.344Z,18.09
2022-12-24T08:41:57.908Z,18.09
2022-12-24T08:44:23.466Z,18.09
2022-12-24T08:46:49.035Z,18.08
2022-12-24T08:49:15.233Z,18.10
2022-12-24T08:51:40.807Z,18.08
2022-12-24T08:54:06.409Z,18.09
2022-12-24T08:56:33.669Z,18.08
2022-12-24T08:58:59.542Z,18.09
2022-12-24T09:01:25.167Z,18.09
2022-12-24T09:03:50.857Z,18.09
2022-12-24T09:06:16.634Z,18.09
2022-12-24T09:08:42.199Z,18.09
2022-12-24T09:11:09.530Z,18.10
2022-12-24T09:13:35.133Z,18.09
2022-12-24T09:16:00.857Z,18.09
2022-12-24T09:18:26.775Z,18.08
2022-12-24T09:20:57.837Z,18.09
2022-12-24T09:23:23.434Z,18.10
2022-12-24T09:25:48.991Z,18.09
2022-12-24T09:28:14.552Z,18.09
2022-12-24T09:30:40.101Z,18.09
2022-12-24T09:33:05.653Z,18.09
2022-12-24T09:35:31.209Z,18.09
2022-12-24T09:38:03.761Z,18.09
2022-12-24T09:40:33.193Z,18.10
2022-12-24T09:42:58.758Z,18.09
2022-12-24T09:45:32.523Z,18.09
2022-12-24T09:47:59.365Z,18.09
2022-12-24T09:50:34.292Z,18.08
2022-12-24T09:53:00.529Z,18.09
2022-12-24T09:55:43.025Z,18.10
2022-12-24T09:58:10.142Z,18.10
2022-12-24T10:00:36.092Z,18.09
2022-12-24T10:03:01.728Z,18.09
2022-12-24T10:05:31.882Z,18.11
2022-12-24T10:08:01.008Z,18.10
2022-12-24T10:10:46.550Z,18.10
2022-12-24T10:13:22.525Z,18.09
2022-12-24T10:15:54.264Z,18.10
2022-12-24T10:18:38.372Z,18.09
2022-12-24T10:21:23.818Z,18.10
2022-12-24T10:23:51.350Z,18.10
2022-12-24T10:26:36.791Z,18.10
2022-12-24T10:29:06.590Z,18.10
2022-12-24T10:31:33.175Z,18.10
2022-12-24T10:33:59.580Z,18.09
2022-12-24T10:36:26.984Z,18.10
2022-12-24T10:38:52.561Z,18.09
2022-12-24T10:41:18.152Z,18.09
2022-12-24T10:43:44.312Z,18.09
2022-12-24T10:46:15.428Z,18.09
2022-12-24T10:48:48.330Z,18.10
2022-12-24T10:51:20.844Z,18.10
2022-12-24T10:53:48.445Z,18.10
2022-12-24T10:56:14.936Z,18.11
2022-12-24T10:58:44.699Z,18.09
2022-12-24T11:01:10.512Z,18.09
2022-12-24T11:03:37.190Z,18.08
2022-12-24T11:06:07.199Z,18.10
2022-12-24T11:08:33.643Z,18.10
2022-12-24T11:11:00.160Z,18.09
2022-12-24T11:13:37.268Z,18.10
2022-12-24T11:16:05.665Z,18.11
2022-12-24T11:18:32.140Z,18.10
2022-12-24T11:20:59.987Z,18.10
2022-12-24T11:23:25.966Z,18.10
2022-12-24T11:25:51.525Z,18.10
2022-12-24T11:28:21.490Z,18.10
2022-12-24T11:30:55.789Z,18.10
2022-12-24T11:33:21.699Z,18.11
2022-12-24T11:35:48.308Z,18.10
2022-12-24T11:38:18.330Z,18.10
2022-12-24T11:40:44.577Z,18.10
2022-12-24T11:43:15.082Z,18.10
2022-12-24T11:45:44.736Z,18.11
2022-12-24T11:48:22.919Z,18.11
2022-12-24T11:50:51.921Z,18.10
2022-12-24T11:53:19.205Z,18.10
2022-12-24T11:55:48.717Z,18.10
2022-12-24T11:58:34.184Z,18.11
2022-12-24T12:01:06.583Z,18.10
2022-12-24T12:03:37.859Z,18.11
2022-12-24T12:06:03.998Z,18.10
2022-12-24T12:08:29.570Z,18.10
2022-12-24T12:10:55.130Z,18.11
2022-12-24T12:13:22.800Z,18.11
2022-12-24T12:15:50.210Z,18.11
2022-12-24T12:18:18.154Z,18.10
2022-12-24T12:20:45.451Z,18.10
2022-12-24T12:23:23.810Z,18.10
2022-12-24T12:26:09.251Z,18.11
2022-12-24T12:28:36.668Z,18.11
2022-12-24T12:31:10.412Z,18.11
2022-12-24T12:33:43.654Z,18.12
2022-12-24T12:36:10.287Z,18.11
2022-12-24T12:38:36.157Z,18.11
2022-12-24T12:41:06.138Z,18.11
2022-12-24T12:43:42.766Z,18.11
2022-12-24T12:49:09.023Z,18.11
2022-12-24T12:51:42.309Z,18.11
2022-12-24T12:54:27.799Z,18.11
2022-12-24T12:56:54.194Z,18.11
2022-12-24T12:59:30.003Z,18.11
2022-12-24T13:02:15.575Z,18.11
2022-12-24T13:05:01.148Z,18.10
2022-12-24T13:07:46.597Z,18.11
2022-12-24T13:10:31.567Z,18.11
2022-12-24T13:13:20.410Z,18.11
2022-12-24T13:15:49.083Z,18.12
2022-12-24T13:18:34.551Z,18.11
2022-12-24T13:21:00.144Z,18.11
2022-12-24T13:23:25.760Z,18.11
2022-12-24T13:25:51.847Z,18.11
2022-12-24T13:28:29.792Z,18.12
2022-12-24T13:31:15.281Z,18.11
2022-12-24T13:36:16.363Z,18.12
2022-12-24T13:38:46.937Z,18.12
2022-12-24T13:41:40.186Z,18.12
2022-12-24T13:46:48.465Z,18.11
2022-12-24T13:49:17.249Z,18.12
2022-12-24T13:51:42.807Z,18.12
2022-12-24T13:54:09.078Z,18.11
2022-12-24T13:56:35.216Z,18.12
2022-12-24T13:59:20.655Z,18.11
2022-12-24T14:01:46.340Z,18.12
2022-12-24T14:04:20.705Z,18.12
2022-12-24T14:06:46.890Z,18.12
2022-12-24T14:09:13.420Z,18.11
2022-12-24T14:11:58.889Z,18.11
2022-12-24T14:14:27.166Z,18.12
2022-12-24T14:16:52.846Z,18.12
2022-12-24T14:19:19.679Z,18.12
2022-12-24T14:21:54.361Z,18.11
2022-12-24T14:24:21.342Z,18.12
2022-12-24T14:26:55.528Z,18.12
2022-12-24T14:29:25.831Z,18.12
2022-12-24T14:31:52.729Z,18.12
2022-12-24T14:34:18.320Z,18.12
2022-12-24T14:36:43.881Z,18.12
2022-12-24T14:39:10.363Z,18.12
2022-12-24T14:41:42.952Z,18.12
2022-12-24T14:44:13.370Z,18.12
2022-12-24T14:46:40.815Z,18.12
2022-12-24T14:49:10.550Z,18.12
2022-12-24T14:51:39.799Z,18.12
2022-12-24T14:54:09.462Z,18.12
2022-12-24T14:56:35.034Z,18.12
2022-12-24T14:59:05.245Z,18.12
2022-12-24T15:01:31.450Z,18.12
2022-12-24T15:04:16.154Z,18.13
2022-12-24T15:06:43.802Z,18.13
2022-12-24T15:09:12.707Z,18.12
2022-12-24T15:11:38.274Z,18.13
2022-12-24T15:14:03.835Z,18.13
2022-12-24T15:16:30.779Z,18.12
2022-12-24T15:18:57.336Z,18.13
2022-12-24T15:21:40.799Z,18.13
2022-12-24T15:24:26.281Z,18.12
2022-12-24T15:26:51.832Z,18.12
2022-12-24T15:29:20.693Z,18.13
2022-12-24T15:31:47.925Z,18.13
2022-12-24T15:34:24.396Z,18.14
2022-12-24T15:36:51.357Z,18.13
2022-12-24T15:39:17.055Z,18.13
2022-12-24T15:42:03.187Z,18.13
2022-12-24T15:44:30.393Z,18.13
2022-12-24T15:46:57.482Z,18.13
2022-12-24T15:49:23.035Z,18.12
2022-12-24T15:51:48.591Z,18.13
2022-12-24T15:54:14.673Z,18.13
2022-12-24T15:56:43.310Z,18.13
2022-12-24T16:01:50.202Z,18.14
2022-12-24T16:04:16.815Z,18.13
2022-12-24T16:07:02.360Z,18.12
2022-12-24T16:09:29.909Z,18.13
2022-12-24T16:12:02.693Z,18.14
2022-12-24T16:14:28.925Z,18.14
2022-12-24T16:16:55.734Z,18.13
2022-12-24T16:19:23.042Z,18.14
2022-12-24T16:21:50.458Z,18.13
2022-12-24T16:24:23.648Z,18.13
2022-12-24T16:26:49.315Z,18.14
2022-12-24T16:29:15.039Z,18.13
2022-12-24T16:31:45.023Z,18.14
2022-12-24T16:34:13.994Z,18.15
2022-12-24T16:36:39.762Z,18.13
2022-12-24T16:39:25.238Z,18.13
2022-12-24T16:42:11.279Z,18.13
2022-12-24T16:44:36.835Z,18.14
2022-12-24T16:47:03.204Z,18.13
2022-12-24T16:49:28.755Z,18.14
2022-12-24T16:51:54.611Z,18.14
2022-12-24T16:54:20.152Z,18.13
2022-12-24T16:56:45.758Z,18.14
2022-12-24T16:59:14.722Z,18.14
2022-12-24T17:01:40.398Z,18.14
2022-12-24T17:04:06.091Z,18.14
2022-12-24T17:06:31.786Z,18.14
2022-12-24T17:08:57.352Z,18.14
2022-12-24T17:11:23.266Z,18.14
2022-12-24T17:13:48.821Z,18.15
2022-12-24T17:16:14.397Z,18.14
2022-12-24T17:18:40.007Z,18.13
2022-12-24T17:21:06.208Z,18.14
2022-12-24T17:23:31.809Z,18.14
2022-12-24T17:25:57.515Z,18.13
2022-12-24T17:28:23.073Z,18.14
2022-12-24T17:30:48.713Z,18.14
2022-12-24T17:33:15.100Z,18.14
2022-12-24T17:35:41.117Z,18.15
2022-12-24T17:38:06.715Z,18.14
2022-12-24T17:40:32.278Z,18.14
2022-12-24T17:42:57.827Z,18.13
2022-12-24T17:45:23.397Z,18.13
2022-12-24T17:47:48.955Z,18.15
2022-12-24T17:50:14.536Z,18.15
2022-12-24T17:52:40.109Z,18.15
2022-12-24T17:55:06.010Z,18.16
2022-12-24T17:57:31.566Z,18.15
2022-12-24T17:59:57.164Z,18.15
2022-12-24T18:02:22.903Z,18.14
2022-12-24T18:04:48.569Z,18.15
2022-12-24T18:07:14.220Z,18.15
2022-12-24T18:09:42.330Z,18.15
2022-12-24T18:12:07.888Z,18.15
2022-12-24T18:14:33.434Z,18.15
2022-12-24T18:16:58.992Z,18.14
2022-12-24T18:19:24.533Z,18.15
2022-12-24T18:21:50.097Z,18.14
2022-12-24T18:24:15.644Z,18.14
2022-12-24T18:26:42.424Z,18.14
2022-12-24T18:29:08.443Z,18.15
2022-12-24T18:31:34.444Z,18.15
2022-12-24T18:34:00.577Z,18.15
2022-12-24T18:36:26.160Z,18.15
2022-12-24T18:38:51.746Z,18.15
2022-12-24T18:41:18.581Z,18.15
2022-12-24T18:43:44.147Z,18.14
2022-12-24T18:46:11.678Z,18.15
2022-12-24T18:48:37.448Z,18.15
2022-12-24T18:51:03.652Z,18.15
2022-12-24T18:53:29.208Z,18.15
2022-12-24T18:55:54.794Z,18.15
2022-12-24T18:58:20.355Z,18.14
2022-12-24T19:00:45.966Z,18.16
2022-12-24T19:03:14.671Z,18.15
2022-12-24T19:05:41.859Z,18.14
2022-12-24T19:08:37.725Z,18.16
2022-12-24T19:10:52.928Z,18.15
2022-12-24T19:13:18.482Z,18.15
2022-12-24T19:15:44.326Z,18.15
2022-12-24T19:18:09.876Z,18.15
2022-12-24T19:20:37.551Z,18.16
2022-12-24T19:23:03.101Z,18.14
2022-12-24T19:25:28.665Z,18.14
2022-12-24T19:27:54.222Z,18.16
2022-12-24T19:30:19.775Z,18.16
2022-12-24T19:32:45.332Z,18.16
2022-12-24T19:35:10.888Z,18.16
2022-12-24T19:37:36.429Z,18.15
2022-12-24T19:40:02.050Z,18.15
2022-12-24T19:42:27.597Z,18.16
2022-12-24T19:44:53.156Z,18.16
2022-12-24T19:47:18.710Z,18.17
2022-12-24T19:49:44.251Z,18.15
2022-12-24T19:52:09.809Z,18.15
2022-12-24T19:54:35.362Z,18.15
2022-12-24T19:57:00.914Z,18.16
2022-12-24T19:59:26.486Z,18.16
2022-12-24T20:01:53.501Z,18.16
2022-12-24T20:04:20.810Z,18.16
2022-12-24T20:06:46.486Z,18.16
2022-12-24T20:09:12.241Z,18.16
2022-12-24T20:11:37.830Z,18.15
2022-12-24T20:14:04.117Z,18.16
2022-12-24T20:16:30.009Z,18.16
2022-12-24T20:18:56.739Z,18.16
2022-12-24T20:21:22.778Z,18.17
2022-12-24T20:23:48.479Z,18.16
2022-12-24T20:26:14.760Z,18.17
2022-12-24T20:28:40.564Z,18.17
2022-12-24T20:31:22.120Z,18.16
2022-12-24T20:33:47.714Z,18.16
2022-12-24T20:36:15.116Z,18.16
2022-12-24T20:38:40.666Z,18.15
2022-12-24T20:41:08.800Z,18.17
2022-12-24T20:43:39.673Z,18.17
2022-12-24T20:46:08.706Z,18.16
2022-12-24T20:48:34.641Z,18.16
2022-12-24T20:51:03.832Z,18.17
2022-12-24T20:53:29.408Z,18.16
2022-12-24T20:55:54.960Z,18.16
2022-12-24T20:58:20.524Z,18.16
2022-12-24T21:00:46.417Z,18.17
2022-12-24T21:03:12.668Z,18.16
2022-12-24T21:05:40.605Z,18.17
2022-12-24T21:08:06.266Z,18.16
2022-12-24T21:10:34.459Z,18.16
2022-12-24T21:13:00.244Z,18.17
2022-12-24T21:15:26.648Z,18.17
2022-12-24T21:17:52.316Z,18.17
2022-12-24T21:20:18.149Z,18.17
2022-12-24T21:22:43.710Z,18.17
2022-12-24T21:25:09.784Z,18.17
2022-12-24T21:27:35.465Z,18.16
2022-12-24T21:30:01.007Z,18.17
2022-12-24T21:32:26.560Z,18.16
2022-12-24T21:34:52.107Z,18.16
2022-12-24T21:37:17.673Z,18.18
2022-12-24T21:39:43.225Z,18.17
2022-12-24T21:42:08.792Z,18.17
2022-12-24T21:44:35.128Z,18.17
2022-12-24T21:47:00.684Z,18.17
2022-12-24T21:49:46.167Z,18.17
2022-12-24T21:52:11.741Z,18.16
2022-12-24T21:54:37.699Z,18.17
2022-12-24T21:57:24.086Z,18.17
2022-12-24T21:59:50.295Z,18.17
2022-12-24T22:02:16.221Z,18.17
2022-12-24T22:04:42.057Z,18.17
2022-12-24T22:07:30.849Z,18.18
2022-12-24T22:10:16.301Z,18.17
2022-12-24T22:12:41.863Z,18.17
2022-12-24T22:15:08.139Z,18.17
2022-12-24T22:17:33.699Z,18.18
2022-12-24T22:19:59.253Z,18.17
2022-12-24T22:22:24.819Z,18.17
2022-12-24T22:24:50.413Z,18.17
2022-12-24T22:27:15.987Z,18.18
2022-12-24T22:29:41.559Z,18.18
2022-12-24T22:32:07.119Z,18.18
2022-12-24T22:34:32.680Z,18.17
2022-12-24T22:36:58.238Z,18.18
2022-12-24T22:39:23.805Z,18.18
2022-12-24T22:41:50.668Z,18.18
2022-12-24T22:44:16.224Z,18.18
2022-12-24T22:46:41.829Z,18.17
2022-12-24T22:49:07.816Z,18.18
2022-12-24T22:51:33.369Z,18.18
2022-12-24T22:53:58.959Z,18.18
2022-12-24T22:56:24.581Z,18.18
2022-12-24T22:58:53.635Z,18.19
2022-12-24T23:01:19.259Z,18.18
2022-12-24T23:03:44.920Z,18.18
2022-12-24T23:06:10.555Z,18.18
2022-12-24T23:08:36.644Z,18.18
2022-12-24T23:11:04.566Z,18.18
2022-12-24T23:13:50.015Z,18.17
2022-12-24T23:16:15.626Z,18.18
2022-12-24T23:18:41.241Z,18.17
2022-12-24T23:21:06.887Z,18.18
2022-12-24T23:23:36.885Z,18.18
2022-12-24T23:26:04.948Z,18.19
2022-12-24T23:28:30.496Z,18.19
2022-12-24T23:30:57.044Z,18.18
2022-12-24T23:33:22.682Z,18.19
2022-12-24T23:35:48.243Z,18.18
2022-12-24T23:38:13.797Z,18.18
2022-12-24T23:40:40.415Z,18.19
2022-12-24T23:43:05.976Z,18.19
2022-12-24T23:45:31.522Z,18.19
2022-12-24T23:47:57.068Z,18.18
2022-12-24T23:50:22.631Z,18.18
2022-12-24T23:52:48.179Z,18.17
2022-12-24T23:55:13.738Z,18.19
2022-12-24T23:57:39.297Z,18.19
